עמוד ראשי
METAR-TAF:

METAR-TAF

שדות תעופה :

נמל התעופה הבינלאומי חורחה צ'אבס

לימה, פרו

קו רוחב: 12-00S, קו אורך: 077-07W, גובה: 12מטר

תצפית מזג אוויר נוכחית

הדו"ח נערך לפני 1 שעות ו 3דקות, בשעה 10:00 UTC
רוח 5קשר מכיוון דרום/דרום-מערב
טמפרטורת 21 צלסיוס
לחות 83%
לחץ 1010 hPa
ראות: 8000מטר

METAR: SPJC 121000Z 20005KT 8000 NSC 21/18 Q1010 NOSIG RMK PP000

זמן: 06:03 (11:03 UTC)

תחזית

הדו"ח נערך לפני 1 שעות ו 3דקות, בשעה 10:00 UTC
תחזית בתוקף מ 12 ב 10 UTC עד 13 ב 06 UTC
רוח 7קשר מכיוון דרום
ראות: 7000מטר
עננים פזורים בגובה 800רגל
מ 12 ב 1800UTC
רוח 12קשר מכיוון דרום
ראות 10 קילומטר או יותר
ללא עננים שבסיסם נמוך מ 5000 רגל או קומולונימבוס

TAF: SPJC 121000Z 1210/1306 18007KT 7000 SCT008 TX26/1219Z TN20/1211Z FM121800 18012KT CAVOK

תצפיות ותחזיות מזג אוויר לגבי יותר מ- 4,000 שדות תעופה ברחבי העולם. דוחות METAR ו- TAF.

התחנות הזמינות מסומנות בנקודות צהובות ואדומות על גבי המפה.

העבר את העכבר לנקודה הצבעונית על מנת לראות את שם התחנה.

לאחר מכן, לחץ כדי לראות את תוכן ואת תחזיות מזג האוויר.

כדי לשנות את המפה: לחץ על הכפתורים הירוקים עם הפלוס השחור כדי להתקרב; על הכפתור הירוק עם המקף כדי להתרחק; או בחיצים הירוקים למפות סמוכות.


METAR-TAF: